sensor_id;sensor_type;location;lat;lon;timestamp;P1;durP1;ratioP1;P2;durP2;ratioP2
56770;SDS011;42641;59.794;17.616;2023-04-05T00:01:51;1.20;;;1.10;;
56770;SDS011;42641;59.794;17.616;2023-04-05T00:04:18;3.77;;;1.67;;
56770;SDS011;42641;59.794;17.616;2023-04-05T00:06:48;7.03;;;1.50;;
56770;SDS011;42641;59.794;17.616;2023-04-05T00:09:19;2.97;;;1.50;;
56770;SDS011;42641;59.794;17.616;2023-04-05T00:11:46;6.10;;;1.30;;
56770;SDS011;42641;59.794;17.616;2023-04-05T00:14:12;5.50;;;1.83;;
56770;SDS011;42641;59.794;17.616;2023-04-05T00:16:39;3.43;;;1.27;;
56770;SDS011;42641;59.794;17.616;2023-04-05T00:19:05;1.30;;;1.20;;
56770;SDS011;42641;59.794;17.616;2023-04-05T00:21:32;5.13;;;1.40;;
56770;SDS011;42641;59.794;17.616;2023-04-05T00:23:59;3.43;;;1.77;;
56770;SDS011;42641;59.794;17.616;2023-04-05T00:26:25;3.77;;;1.60;;
56770;SDS011;42641;59.794;17.616;2023-04-05T00:28:56;4.70;;;1.77;;
56770;SDS011;42641;59.794;17.616;2023-04-05T00:31:22;4.80;;;1.60;;
56770;SDS011;42641;59.794;17.616;2023-04-05T00:33:49;4.93;;;1.77;;
56770;SDS011;42641;59.794;17.616;2023-04-05T00:36:16;4.40;;;1.70;;
56770;SDS011;42641;59.794;17.616;2023-04-05T00:38:44;2.97;;;1.20;;
56770;SDS011;42641;59.794;17.616;2023-04-05T00:41:12;1.67;;;1.33;;
56770;SDS011;42641;59.794;17.616;2023-04-05T00:43:39;2.30;;;1.60;;
56770;SDS011;42641;59.794;17.616;2023-04-05T00:46:06;2.10;;;1.60;;
56770;SDS011;42641;59.794;17.616;2023-04-05T00:48:34;1.77;;;1.30;;
56770;SDS011;42641;59.794;17.616;2023-04-05T00:51:01;4.27;;;1.40;;
56770;SDS011;42641;59.794;17.616;2023-04-05T00:53:28;4.77;;;1.47;;
56770;SDS011;42641;59.794;17.616;2023-04-05T00:55:54;4.00;;;1.50;;
56770;SDS011;42641;59.794;17.616;2023-04-05T00:58:21;2.13;;;1.50;;
56770;SDS011;42641;59.794;17.616;2023-04-05T01:03:31;3.73;;;1.30;;
56770;SDS011;42641;59.794;17.616;2023-04-05T01:11:31;1.70;;;1.40;;
56770;SDS011;42641;59.794;17.616;2023-04-05T01:14:00;3.10;;;1.50;;
56770;SDS011;42641;59.794;17.616;2023-04-05T01:16:27;3.80;;;1.23;;
56770;SDS011;42641;59.794;17.616;2023-04-05T01:18:54;1.47;;;1.20;;
56770;SDS011;42641;59.794;17.616;2023-04-05T01:27:03;3.60;;;1.50;;
56770;SDS011;42641;59.794;17.616;2023-04-05T01:29:46;2.07;;;1.40;;
56770;SDS011;42641;59.794;17.616;2023-04-05T01:35:38;2.40;;;1.57;;
56770;SDS011;42641;59.794;17.616;2023-04-05T01:38:11;3.57;;;1.80;;
56770;SDS011;42641;59.794;17.616;2023-04-05T01:40:44;3.30;;;1.67;;
56770;SDS011;42641;59.794;17.616;2023-04-05T01:43:12;2.50;;;1.40;;
56770;SDS011;42641;59.794;17.616;2023-04-05T01:45:40;4.07;;;1.60;;
56770;SDS011;42641;59.794;17.616;2023-04-05T01:48:09;4.90;;;1.43;;
56770;SDS011;42641;59.794;17.616;2023-04-05T01:50:36;3.23;;;1.70;;
56770;SDS011;42641;59.794;17.616;2023-04-05T01:53:02;6.77;;;1.50;;
56770;SDS011;42641;59.794;17.616;2023-04-05T01:55:29;5.20;;;1.70;;
56770;SDS011;42641;59.794;17.616;2023-04-05T01:57:56;4.03;;;1.37;;
56770;SDS011;42641;59.794;17.616;2023-04-05T02:00:23;4.93;;;1.97;;
56770;SDS011;42641;59.794;17.616;2023-04-05T02:02:51;4.50;;;1.70;;
56770;SDS011;42641;59.794;17.616;2023-04-05T02:05:17;4.07;;;1.90;;
56770;SDS011;42641;59.794;17.616;2023-04-05T02:07:44;3.30;;;1.83;;
56770;SDS011;42641;59.794;17.616;2023-04-05T02:10:10;2.37;;;1.67;;
56770;SDS011;42641;59.794;17.616;2023-04-05T02:12:38;3.47;;;1.80;;
56770;SDS011;42641;59.794;17.616;2023-04-05T02:15:05;6.57;;;2.00;;
56770;SDS011;42641;59.794;17.616;2023-04-05T02:17:32;4.97;;;1.80;;
56770;SDS011;42641;59.794;17.616;2023-04-05T02:20:07;3.73;;;1.63;;
56770;SDS011;42641;59.794;17.616;2023-04-05T02:22:37;4.13;;;2.00;;
56770;SDS011;42641;59.794;17.616;2023-04-05T02:25:05;3.00;;;1.80;;
56770;SDS011;42641;59.794;17.616;2023-04-05T02:27:37;4.93;;;1.80;;
56770;SDS011;42641;59.794;17.616;2023-04-05T02:30:03;2.70;;;1.70;;
56770;SDS011;42641;59.794;17.616;2023-04-05T02:32:30;6.13;;;1.97;;
56770;SDS011;42641;59.794;17.616;2023-04-05T02:34:57;2.50;;;1.63;;
56770;SDS011;42641;59.794;17.616;2023-04-05T02:37:23;3.77;;;1.70;;
56770;SDS011;42641;59.794;17.616;2023-04-05T02:39:52;3.47;;;1.93;;
56770;SDS011;42641;59.794;17.616;2023-04-05T02:42:19;2.10;;;1.80;;
56770;SDS011;42641;59.794;17.616;2023-04-05T02:44:49;3.93;;;2.03;;
56770;SDS011;42641;59.794;17.616;2023-04-05T02:47:17;5.50;;;1.73;;
56770;SDS011;42641;59.794;17.616;2023-04-05T02:49:51;2.73;;;1.73;;
56770;SDS011;42641;59.794;17.616;2023-04-05T02:52:18;5.10;;;2.10;;
56770;SDS011;42641;59.794;17.616;2023-04-05T02:54:47;2.57;;;2.00;;
56770;SDS011;42641;59.794;17.616;2023-04-05T02:57:18;4.60;;;1.90;;
56770;SDS011;42641;59.794;17.616;2023-04-05T02:59:53;3.30;;;1.93;;
56770;SDS011;42641;59.794;17.616;2023-04-05T03:02:20;2.67;;;2.00;;
56770;SDS011;42641;59.794;17.616;2023-04-05T03:04:47;3.87;;;1.83;;
56770;SDS011;42641;59.794;17.616;2023-04-05T03:07:15;2.77;;;1.90;;
56770;SDS011;42641;59.794;17.616;2023-04-05T03:09:45;2.77;;;2.20;;
56770;SDS011;42641;59.794;17.616;2023-04-05T03:12:12;4.67;;;2.37;;
56770;SDS011;42641;59.794;17.616;2023-04-05T03:14:41;4.43;;;2.17;;
56770;SDS011;42641;59.794;17.616;2023-04-05T03:17:12;4.53;;;2.10;;
56770;SDS011;42641;59.794;17.616;2023-04-05T03:19:42;5.60;;;2.27;;
56770;SDS011;42641;59.794;17.616;2023-04-05T03:22:17;3.63;;;2.13;;
56770;SDS011;42641;59.794;17.616;2023-04-05T03:24:44;3.37;;;2.17;;
56770;SDS011;42641;59.794;17.616;2023-04-05T03:27:13;3.43;;;2.10;;
56770;SDS011;42641;59.794;17.616;2023-04-05T03:29:55;2.70;;;2.20;;
56770;SDS011;42641;59.794;17.616;2023-04-05T03:32:21;3.23;;;2.40;;
56770;SDS011;42641;59.794;17.616;2023-04-05T03:34:55;4.40;;;2.63;;
56770;SDS011;42641;59.794;17.616;2023-04-05T03:37:22;3.47;;;2.27;;
56770;SDS011;42641;59.794;17.616;2023-04-05T03:39:58;3.07;;;2.43;;
56770;SDS011;42641;59.794;17.616;2023-04-05T03:42:25;4.27;;;2.27;;
56770;SDS011;42641;59.794;17.616;2023-04-05T03:44:52;3.53;;;2.50;;
56770;SDS011;42641;59.794;17.616;2023-04-05T03:47:19;3.40;;;2.40;;
56770;SDS011;42641;59.794;17.616;2023-04-05T03:49:45;4.60;;;2.50;;
56770;SDS011;42641;59.794;17.616;2023-04-05T03:52:12;3.73;;;2.80;;
56770;SDS011;42641;59.794;17.616;2023-04-05T03:54:43;4.07;;;2.83;;
56770;SDS011;42641;59.794;17.616;2023-04-05T03:57:10;4.13;;;2.70;;
56770;SDS011;42641;59.794;17.616;2023-04-05T03:59:38;4.63;;;2.43;;
56770;SDS011;42641;59.794;17.616;2023-04-05T04:02:07;3.93;;;2.63;;
56770;SDS011;42641;59.794;17.616;2023-04-05T04:04:34;4.13;;;2.30;;
56770;SDS011;42641;59.794;17.616;2023-04-05T04:07:00;3.77;;;2.47;;
56770;SDS011;42641;59.794;17.616;2023-04-05T04:09:28;3.50;;;2.20;;
56770;SDS011;42641;59.794;17.616;2023-04-05T04:12:02;4.73;;;2.30;;
56770;SDS011;42641;59.794;17.616;2023-04-05T04:14:29;4.60;;;2.37;;
56770;SDS011;42641;59.794;17.616;2023-04-05T04:16:55;4.17;;;2.53;;
56770;SDS011;42641;59.794;17.616;2023-04-05T04:19:38;3.33;;;2.47;;
56770;SDS011;42641;59.794;17.616;2023-04-05T04:22:22;2.87;;;2.40;;
56770;SDS011;42641;59.794;17.616;2023-04-05T04:25:10;3.70;;;2.10;;
56770;SDS011;42641;59.794;17.616;2023-04-05T04:28:09;5.33;;;2.93;;
56770;SDS011;42641;59.794;17.616;2023-04-05T04:30:49;3.60;;;2.50;;
56770;SDS011;42641;59.794;17.616;2023-04-05T04:33:51;3.67;;;2.40;;
56770;SDS011;42641;59.794;17.616;2023-04-05T04:36:38;3.20;;;2.50;;
56770;SDS011;42641;59.794;17.616;2023-04-05T04:39:39;4.27;;;2.80;;
56770;SDS011;42641;59.794;17.616;2023-04-05T04:42:32;4.20;;;2.83;;
56770;SDS011;42641;59.794;17.616;2023-04-05T04:45:22;4.33;;;2.97;;
56770;SDS011;42641;59.794;17.616;2023-04-05T04:48:10;5.77;;;2.97;;
56770;SDS011;42641;59.794;17.616;2023-04-05T04:50:47;4.40;;;3.03;;
56770;SDS011;42641;59.794;17.616;2023-04-05T04:53:14;5.07;;;3.23;;
56770;SDS011;42641;59.794;17.616;2023-04-05T04:55:44;3.47;;;2.93;;
56770;SDS011;42641;59.794;17.616;2023-04-05T04:58:10;4.90;;;3.00;;
56770;SDS011;42641;59.794;17.616;2023-04-05T05:00:42;5.77;;;3.33;;
56770;SDS011;42641;59.794;17.616;2023-04-05T05:03:09;6.30;;;3.00;;
56770;SDS011;42641;59.794;17.616;2023-04-05T05:05:43;4.67;;;3.20;;
56770;SDS011;42641;59.794;17.616;2023-04-05T05:08:11;6.50;;;3.40;;
56770;SDS011;42641;59.794;17.616;2023-04-05T05:10:40;5.57;;;3.93;;
56770;SDS011;42641;59.794;17.616;2023-04-05T05:13:07;5.43;;;3.67;;
56770;SDS011;42641;59.794;17.616;2023-04-05T05:15:34;5.57;;;3.40;;
56770;SDS011;42641;59.794;17.616;2023-04-05T05:18:00;5.60;;;3.50;;
56770;SDS011;42641;59.794;17.616;2023-04-05T05:20:28;4.33;;;3.33;;
56770;SDS011;42641;59.794;17.616;2023-04-05T05:22:54;5.90;;;3.50;;
56770;SDS011;42641;59.794;17.616;2023-04-05T05:25:21;4.77;;;3.20;;
56770;SDS011;42641;59.794;17.616;2023-04-05T05:27:48;4.73;;;2.93;;
56770;SDS011;42641;59.794;17.616;2023-04-05T05:30:16;4.80;;;3.30;;
56770;SDS011;42641;59.794;17.616;2023-04-05T05:32:43;4.20;;;3.13;;
56770;SDS011;42641;59.794;17.616;2023-04-05T05:35:09;3.83;;;2.80;;
56770;SDS011;42641;59.794;17.616;2023-04-05T05:37:36;5.43;;;3.30;;
56770;SDS011;42641;59.794;17.616;2023-04-05T05:40:02;4.57;;;3.10;;
56770;SDS011;42641;59.794;17.616;2023-04-05T05:42:30;6.20;;;3.10;;
56770;SDS011;42641;59.794;17.616;2023-04-05T05:45:01;8.00;;;3.40;;
56770;SDS011;42641;59.794;17.616;2023-04-05T05:47:29;4.87;;;2.97;;
56770;SDS011;42641;59.794;17.616;2023-04-05T05:49:56;6.23;;;3.13;;
56770;SDS011;42641;59.794;17.616;2023-04-05T05:52:22;4.07;;;2.87;;
56770;SDS011;42641;59.794;17.616;2023-04-05T05:54:49;5.90;;;3.23;;
56770;SDS011;42641;59.794;17.616;2023-04-05T05:57:16;3.67;;;2.80;;
56770;SDS011;42641;59.794;17.616;2023-04-05T05:59:42;4.50;;;2.90;;
56770;SDS011;42641;59.794;17.616;2023-04-05T06:02:08;5.40;;;3.40;;
56770;SDS011;42641;59.794;17.616;2023-04-05T06:04:35;6.37;;;3.00;;
56770;SDS011;42641;59.794;17.616;2023-04-05T06:07:02;4.67;;;3.30;;
56770;SDS011;42641;59.794;17.616;2023-04-05T06:09:29;2.90;;;2.70;;
56770;SDS011;42641;59.794;17.616;2023-04-05T06:11:55;4.60;;;3.40;;
56770;SDS011;42641;59.794;17.616;2023-04-05T06:14:23;3.77;;;3.33;;
56770;SDS011;42641;59.794;17.616;2023-04-05T06:16:50;4.80;;;3.17;;
56770;SDS011;42641;59.794;17.616;2023-04-05T06:19:17;4.50;;;2.63;;
56770;SDS011;42641;59.794;17.616;2023-04-05T06:21:43;4.23;;;2.90;;
56770;SDS011;42641;59.794;17.616;2023-04-05T06:24:10;4.07;;;2.87;;
56770;SDS011;42641;59.794;17.616;2023-04-05T06:26:36;6.00;;;3.37;;
56770;SDS011;42641;59.794;17.616;2023-04-05T06:29:03;4.97;;;2.90;;
56770;SDS011;42641;59.794;17.616;2023-04-05T06:31:30;3.40;;;2.80;;
56770;SDS011;42641;59.794;17.616;2023-04-05T06:33:58;6.97;;;3.50;;
56770;SDS011;42641;59.794;17.616;2023-04-05T06:36:24;7.30;;;3.00;;
56770;SDS011;42641;59.794;17.616;2023-04-05T06:38:51;11.77;;;3.30;;
56770;SDS011;42641;59.794;17.616;2023-04-05T06:41:18;5.70;;;2.97;;
56770;SDS011;42641;59.794;17.616;2023-04-05T06:43:44;5.33;;;3.03;;
56770;SDS011;42641;59.794;17.616;2023-04-05T06:46:11;5.60;;;3.10;;
56770;SDS011;42641;59.794;17.616;2023-04-05T06:48:38;6.30;;;3.20;;
56770;SDS011;42641;59.794;17.616;2023-04-05T06:51:05;5.20;;;2.97;;
56770;SDS011;42641;59.794;17.616;2023-04-05T06:53:31;3.53;;;2.77;;
56770;SDS011;42641;59.794;17.616;2023-04-05T06:55:58;7.07;;;4.10;;
56770;SDS011;42641;59.794;17.616;2023-04-05T06:58:25;3.77;;;2.73;;
56770;SDS011;42641;59.794;17.616;2023-04-05T07:00:52;6.13;;;2.90;;
56770;SDS011;42641;59.794;17.616;2023-04-05T07:03:19;4.50;;;2.90;;
56770;SDS011;42641;59.794;17.616;2023-04-05T07:05:52;7.37;;;2.70;;
56770;SDS011;42641;59.794;17.616;2023-04-05T07:08:19;5.97;;;2.77;;
56770;SDS011;42641;59.794;17.616;2023-04-05T07:10:46;3.00;;;2.53;;
56770;SDS011;42641;59.794;17.616;2023-04-05T07:13:14;4.70;;;2.70;;
56770;SDS011;42641;59.794;17.616;2023-04-05T07:15:42;4.97;;;3.07;;
56770;SDS011;42641;59.794;17.616;2023-04-05T07:18:09;4.93;;;3.17;;
56770;SDS011;42641;59.794;17.616;2023-04-05T07:20:36;4.33;;;2.93;;
56770;SDS011;42641;59.794;17.616;2023-04-05T07:23:03;4.03;;;2.87;;
56770;SDS011;42641;59.794;17.616;2023-04-05T07:25:33;5.80;;;2.70;;
56770;SDS011;42641;59.794;17.616;2023-04-05T07:27:59;4.13;;;3.03;;
56770;SDS011;42641;59.794;17.616;2023-04-05T07:30:26;5.20;;;2.57;;
56770;SDS011;42641;59.794;17.616;2023-04-05T07:32:53;6.80;;;3.17;;
56770;SDS011;42641;59.794;17.616;2023-04-05T07:35:19;6.53;;;2.90;;
56770;SDS011;42641;59.794;17.616;2023-04-05T07:37:46;5.73;;;2.83;;
56770;SDS011;42641;59.794;17.616;2023-04-05T07:40:12;4.67;;;2.60;;
56770;SDS011;42641;59.794;17.616;2023-04-05T07:42:39;4.07;;;2.53;;
56770;SDS011;42641;59.794;17.616;2023-04-05T07:45:06;8.57;;;2.40;;
56770;SDS011;42641;59.794;17.616;2023-04-05T07:47:33;5.90;;;3.03;;
56770;SDS011;42641;59.794;17.616;2023-04-05T07:50:00;2.40;;;1.90;;
56770;SDS011;42641;59.794;17.616;2023-04-05T07:52:26;4.70;;;2.27;;
56770;SDS011;42641;59.794;17.616;2023-04-05T07:54:54;3.10;;;2.33;;
56770;SDS011;42641;59.794;17.616;2023-04-05T07:57:20;4.77;;;2.30;;
56770;SDS011;42641;59.794;17.616;2023-04-05T07:59:47;4.57;;;2.13;;
56770;SDS011;42641;59.794;17.616;2023-04-05T08:02:17;5.33;;;2.37;;
56770;SDS011;42641;59.794;17.616;2023-04-05T08:04:44;6.43;;;2.30;;
56770;SDS011;42641;59.794;17.616;2023-04-05T08:07:11;3.63;;;1.60;;
56770;SDS011;42641;59.794;17.616;2023-04-05T08:09:37;3.27;;;1.60;;
56770;SDS011;42641;59.794;17.616;2023-04-05T08:12:03;2.73;;;1.60;;
56770;SDS011;42641;59.794;17.616;2023-04-05T08:14:31;4.20;;;1.77;;
56770;SDS011;42641;59.794;17.616;2023-04-05T08:17:00;4.53;;;1.70;;
56770;SDS011;42641;59.794;17.616;2023-04-05T08:19:26;3.93;;;1.53;;
56770;SDS011;42641;59.794;17.616;2023-04-05T08:21:52;2.13;;;1.87;;
56770;SDS011;42641;59.794;17.616;2023-04-05T08:24:19;5.30;;;1.90;;
56770;SDS011;42641;59.794;17.616;2023-04-05T08:26:45;3.27;;;1.80;;
56770;SDS011;42641;59.794;17.616;2023-04-05T08:29:12;2.30;;;1.60;;
56770;SDS011;42641;59.794;17.616;2023-04-05T08:31:38;2.30;;;1.80;;
56770;SDS011;42641;59.794;17.616;2023-04-05T08:34:05;3.27;;;1.70;;
56770;SDS011;42641;59.794;17.616;2023-04-05T08:36:33;3.87;;;1.80;;
56770;SDS011;42641;59.794;17.616;2023-04-05T08:38:59;3.00;;;1.40;;
56770;SDS011;42641;59.794;17.616;2023-04-05T08:41:26;4.83;;;1.87;;
56770;SDS011;42641;59.794;17.616;2023-04-05T08:44:00;3.93;;;1.50;;
56770;SDS011;42641;59.794;17.616;2023-04-05T08:46:31;2.87;;;1.60;;
56770;SDS011;42641;59.794;17.616;2023-04-05T08:48:59;5.00;;;1.47;;
56770;SDS011;42641;59.794;17.616;2023-04-05T08:51:29;2.30;;;1.47;;
56770;SDS011;42641;59.794;17.616;2023-04-05T08:53:56;6.93;;;1.90;;
56770;SDS011;42641;59.794;17.616;2023-04-05T08:56:26;1.97;;;1.43;;
56770;SDS011;42641;59.794;17.616;2023-04-05T08:59:06;4.63;;;1.83;;
56770;SDS011;42641;59.794;17.616;2023-04-05T09:01:38;2.90;;;1.20;;
56770;SDS011;42641;59.794;17.616;2023-04-05T09:04:11;4.50;;;1.40;;
56770;SDS011;42641;59.794;17.616;2023-04-05T09:07:00;3.27;;;1.33;;
56770;SDS011;42641;59.794;17.616;2023-04-05T09:09:31;4.70;;;1.30;;
56770;SDS011;42641;59.794;17.616;2023-04-05T09:12:02;2.63;;;1.10;;
56770;SDS011;42641;59.794;17.616;2023-04-05T09:14:29;2.00;;;1.30;;
56770;SDS011;42641;59.794;17.616;2023-04-05T09:17:00;2.47;;;1.27;;
56770;SDS011;42641;59.794;17.616;2023-04-05T09:19:28;5.53;;;0.97;;
56770;SDS011;42641;59.794;17.616;2023-04-05T09:24:28;9.70;;;1.30;;
56770;SDS011;42641;59.794;17.616;2023-04-05T09:27:02;4.03;;;1.50;;
56770;SDS011;42641;59.794;17.616;2023-04-05T09:29:39;3.10;;;1.30;;
56770;SDS011;42641;59.794;17.616;2023-04-05T09:32:07;2.33;;;1.47;;
56770;SDS011;42641;59.794;17.616;2023-04-05T09:34:35;5.87;;;1.37;;
56770;SDS011;42641;59.794;17.616;2023-04-05T09:37:03;2.87;;;1.30;;
56770;SDS011;42641;59.794;17.616;2023-04-05T09:39:40;2.47;;;1.40;;
56770;SDS011;42641;59.794;17.616;2023-04-05T09:42:09;2.53;;;1.00;;
56770;SDS011;42641;59.794;17.616;2023-04-05T09:47:19;2.77;;;1.20;;
56770;SDS011;42641;59.794;17.616;2023-04-05T09:49:50;5.40;;;1.43;;
56770;SDS011;42641;59.794;17.616;2023-04-05T09:52:22;1.60;;;1.00;;
56770;SDS011;42641;59.794;17.616;2023-04-05T09:54:50;2.40;;;1.27;;
56770;SDS011;42641;59.794;17.616;2023-04-05T09:57:22;2.87;;;1.27;;
56770;SDS011;42641;59.794;17.616;2023-04-05T09:59:52;7.00;;;1.23;;
56770;SDS011;42641;59.794;17.616;2023-04-05T10:02:20;2.53;;;1.20;;
56770;SDS011;42641;59.794;17.616;2023-04-05T10:04:47;11.57;;;1.53;;
56770;SDS011;42641;59.794;17.616;2023-04-05T10:07:14;6.83;;;1.53;;
56770;SDS011;42641;59.794;17.616;2023-04-05T10:09:43;7.70;;;1.47;;
56770;SDS011;42641;59.794;17.616;2023-04-05T10:12:23;11.60;;;1.57;;
56770;SDS011;42641;59.794;17.616;2023-04-05T10:14:52;4.77;;;1.33;;
56770;SDS011;42641;59.794;17.616;2023-04-05T10:17:23;5.13;;;1.27;;
56770;SDS011;42641;59.794;17.616;2023-04-05T10:20:13;5.43;;;1.60;;
56770;SDS011;42641;59.794;17.616;2023-04-05T10:25:43;3.23;;;1.00;;
56770;SDS011;42641;59.794;17.616;2023-04-05T10:30:54;7.40;;;1.33;;
56770;SDS011;42641;59.794;17.616;2023-04-05T10:33:38;6.80;;;1.40;;
56770;SDS011;42641;59.794;17.616;2023-04-05T10:38:44;3.60;;;1.60;;
56770;SDS011;42641;59.794;17.616;2023-04-05T10:41:34;4.83;;;1.37;;
56770;SDS011;42641;59.794;17.616;2023-04-05T10:44:04;5.77;;;1.10;;
56770;SDS011;42641;59.794;17.616;2023-04-05T10:46:32;2.83;;;1.40;;
56770;SDS011;42641;59.794;17.616;2023-04-05T10:49:04;9.87;;;1.33;;
56770;SDS011;42641;59.794;17.616;2023-04-05T10:51:52;1.50;;;1.03;;
56770;SDS011;42641;59.794;17.616;2023-04-05T10:54:20;3.43;;;1.20;;
56770;SDS011;42641;59.794;17.616;2023-04-05T10:56:47;1.73;;;1.20;;
56770;SDS011;42641;59.794;17.616;2023-04-05T10:59:15;7.83;;;1.80;;
56770;SDS011;42641;59.794;17.616;2023-04-05T11:01:45;2.70;;;1.00;;
56770;SDS011;42641;59.794;17.616;2023-04-05T11:04:13;6.63;;;1.60;;
56770;SDS011;42641;59.794;17.616;2023-04-05T11:06:40;5.47;;;1.47;;
56770;SDS011;42641;59.794;17.616;2023-04-05T11:09:11;2.53;;;1.10;;
56770;SDS011;42641;59.794;17.616;2023-04-05T11:11:44;2.63;;;1.17;;
56770;SDS011;42641;59.794;17.616;2023-04-05T11:14:21;3.03;;;1.20;;
56770;SDS011;42641;59.794;17.616;2023-04-05T11:16:59;3.23;;;1.17;;
56770;SDS011;42641;59.794;17.616;2023-04-05T11:22:12;2.00;;;1.20;;
56770;SDS011;42641;59.794;17.616;2023-04-05T11:24:52;1.93;;;1.27;;
56770;SDS011;42641;59.794;17.616;2023-04-05T11:27:27;1.90;;;1.13;;
56770;SDS011;42641;59.794;17.616;2023-04-05T11:29:59;1.33;;;1.20;;
56770;SDS011;42641;59.794;17.616;2023-04-05T11:33:00;2.07;;;1.40;;
56770;SDS011;42641;59.794;17.616;2023-04-05T11:35:19;2.97;;;1.20;;
56770;SDS011;42641;59.794;17.616;2023-04-05T11:37:55;3.60;;;1.40;;
56770;SDS011;42641;59.794;17.616;2023-04-05T11:40:29;2.93;;;1.33;;
56770;SDS011;42641;59.794;17.616;2023-04-05T11:43:03;6.70;;;1.30;;
56770;SDS011;42641;59.794;17.616;2023-04-05T11:45:35;6.13;;;1.63;;
56770;SDS011;42641;59.794;17.616;2023-04-05T11:48:04;5.47;;;1.30;;
56770;SDS011;42641;59.794;17.616;2023-04-05T11:50:31;1.33;;;1.20;;
56770;SDS011;42641;59.794;17.616;2023-04-05T11:53:11;2.43;;;1.30;;
56770;SDS011;42641;59.794;17.616;2023-04-05T11:55:40;2.40;;;1.60;;
56770;SDS011;42641;59.794;17.616;2023-04-05T11:58:15;3.67;;;1.47;;
56770;SDS011;42641;59.794;17.616;2023-04-05T12:00:44;1.63;;;1.27;;
56770;SDS011;42641;59.794;17.616;2023-04-05T12:03:11;1.70;;;1.20;;
56770;SDS011;42641;59.794;17.616;2023-04-05T12:05:46;4.60;;;1.33;;
56770;SDS011;42641;59.794;17.616;2023-04-05T12:08:17;3.10;;;1.47;;
56770;SDS011;42641;59.794;17.616;2023-04-05T12:10:52;5.17;;;1.47;;
56770;SDS011;42641;59.794;17.616;2023-04-05T12:13:31;1.80;;;1.30;;
56770;SDS011;42641;59.794;17.616;2023-04-05T12:15:59;2.30;;;1.37;;
56770;SDS011;42641;59.794;17.616;2023-04-05T12:18:29;1.73;;;1.30;;
56770;SDS011;42641;59.794;17.616;2023-04-05T12:20:58;1.93;;;1.27;;
56770;SDS011;42641;59.794;17.616;2023-04-05T12:23:26;2.60;;;1.43;;
56770;SDS011;42641;59.794;17.616;2023-04-05T12:25:54;3.80;;;1.57;;
56770;SDS011;42641;59.794;17.616;2023-04-05T12:28:24;4.10;;;1.50;;
56770;SDS011;42641;59.794;17.616;2023-04-05T12:30:51;3.50;;;1.57;;
56770;SDS011;42641;59.794;17.616;2023-04-05T12:33:29;2.83;;;1.43;;
56770;SDS011;42641;59.794;17.616;2023-04-05T12:35:57;4.07;;;1.80;;
56770;SDS011;42641;59.794;17.616;2023-04-05T12:38:29;4.23;;;1.73;;
56770;SDS011;42641;59.794;17.616;2023-04-05T12:40:59;2.10;;;1.57;;
56770;SDS011;42641;59.794;17.616;2023-04-05T12:43:37;4.60;;;1.70;;
56770;SDS011;42641;59.794;17.616;2023-04-05T12:46:10;2.77;;;1.60;;
56770;SDS011;42641;59.794;17.616;2023-04-05T12:48:41;2.00;;;1.30;;
56770;SDS011;42641;59.794;17.616;2023-04-05T12:51:14;7.43;;;1.90;;
56770;SDS011;42641;59.794;17.616;2023-04-05T12:53:45;3.53;;;1.97;;
56770;SDS011;42641;59.794;17.616;2023-04-05T12:56:12;3.10;;;1.70;;
56770;SDS011;42641;59.794;17.616;2023-04-05T12:58:40;3.33;;;1.97;;
56770;SDS011;42641;59.794;17.616;2023-04-05T13:01:08;3.23;;;1.97;;
56770;SDS011;42641;59.794;17.616;2023-04-05T13:03:35;6.00;;;2.10;;
56770;SDS011;42641;59.794;17.616;2023-04-05T13:06:01;3.33;;;1.90;;
56770;SDS011;42641;59.794;17.616;2023-04-05T13:08:28;3.70;;;2.03;;
56770;SDS011;42641;59.794;17.616;2023-04-05T13:10:55;2.97;;;2.03;;
56770;SDS011;42641;59.794;17.616;2023-04-05T13:13:21;3.17;;;1.80;;
56770;SDS011;42641;59.794;17.616;2023-04-05T13:15:48;3.67;;;2.20;;
56770;SDS011;42641;59.794;17.616;2023-04-05T13:18:14;5.07;;;1.90;;
56770;SDS011;42641;59.794;17.616;2023-04-05T13:20:41;2.50;;;1.87;;
56770;SDS011;42641;59.794;17.616;2023-04-05T13:23:07;3.10;;;1.90;;
56770;SDS011;42641;59.794;17.616;2023-04-05T13:25:37;2.60;;;1.70;;
56770;SDS011;42641;59.794;17.616;2023-04-05T13:28:07;3.50;;;1.70;;
56770;SDS011;42641;59.794;17.616;2023-04-05T13:30:34;5.60;;;2.00;;
56770;SDS011;42641;59.794;17.616;2023-04-05T13:33:00;3.10;;;1.90;;
56770;SDS011;42641;59.794;17.616;2023-04-05T13:35:29;2.57;;;1.77;;
56770;SDS011;42641;59.794;17.616;2023-04-05T13:37:55;2.77;;;1.87;;
56770;SDS011;42641;59.794;17.616;2023-04-05T13:40:22;3.93;;;1.87;;
56770;SDS011;42641;59.794;17.616;2023-04-05T13:42:49;3.40;;;1.83;;
56770;SDS011;42641;59.794;17.616;2023-04-05T13:45:15;2.33;;;1.67;;
56770;SDS011;42641;59.794;17.616;2023-04-05T13:47:41;2.97;;;1.70;;
56770;SDS011;42641;59.794;17.616;2023-04-05T13:50:08;3.23;;;1.73;;
56770;SDS011;42641;59.794;17.616;2023-04-05T13:52:35;4.10;;;2.00;;
56770;SDS011;42641;59.794;17.616;2023-04-05T13:55:02;3.27;;;1.50;;
56770;SDS011;42641;59.794;17.616;2023-04-05T13:57:29;2.17;;;1.50;;
56770;SDS011;42641;59.794;17.616;2023-04-05T13:59:56;3.07;;;1.70;;
56770;SDS011;42641;59.794;17.616;2023-04-05T14:02:22;4.33;;;2.20;;
56770;SDS011;42641;59.794;17.616;2023-04-05T14:04:50;4.70;;;1.83;;
56770;SDS011;42641;59.794;17.616;2023-04-05T14:07:20;3.97;;;1.60;;
56770;SDS011;42641;59.794;17.616;2023-04-05T14:09:47;3.63;;;1.70;;
56770;SDS011;42641;59.794;17.616;2023-04-05T14:12:14;3.47;;;1.83;;
56770;SDS011;42641;59.794;17.616;2023-04-05T14:14:40;2.33;;;1.90;;
56770;SDS011;42641;59.794;17.616;2023-04-05T14:17:07;2.67;;;2.17;;
56770;SDS011;42641;59.794;17.616;2023-04-05T14:19:34;3.03;;;2.00;;
56770;SDS011;42641;59.794;17.616;2023-04-05T14:22:01;3.50;;;1.57;;
56770;SDS011;42641;59.794;17.616;2023-04-05T14:24:28;2.30;;;1.70;;
56770;SDS011;42641;59.794;17.616;2023-04-05T14:26:54;3.23;;;1.90;;
56770;SDS011;42641;59.794;17.616;2023-04-05T14:29:21;2.70;;;1.63;;
56770;SDS011;42641;59.794;17.616;2023-04-05T14:31:47;2.80;;;1.80;;
56770;SDS011;42641;59.794;17.616;2023-04-05T14:34:14;2.33;;;1.80;;
56770;SDS011;42641;59.794;17.616;2023-04-05T14:36:40;3.07;;;1.90;;
56770;SDS011;42641;59.794;17.616;2023-04-05T14:39:07;2.93;;;1.80;;
56770;SDS011;42641;59.794;17.616;2023-04-05T14:41:33;3.70;;;2.10;;
56770;SDS011;42641;59.794;17.616;2023-04-05T14:44:00;3.07;;;1.80;;
56770;SDS011;42641;59.794;17.616;2023-04-05T14:46:27;2.57;;;2.10;;
56770;SDS011;42641;59.794;17.616;2023-04-05T14:48:53;3.53;;;1.93;;
56770;SDS011;42641;59.794;17.616;2023-04-05T14:51:20;4.23;;;1.93;;
56770;SDS011;42641;59.794;17.616;2023-04-05T14:53:46;3.70;;;2.00;;
56770;SDS011;42641;59.794;17.616;2023-04-05T14:56:13;5.53;;;2.20;;
56770;SDS011;42641;59.794;17.616;2023-04-05T14:58:39;5.37;;;2.20;;
56770;SDS011;42641;59.794;17.616;2023-04-05T15:01:06;3.27;;;1.93;;
56770;SDS011;42641;59.794;17.616;2023-04-05T15:03:35;4.33;;;2.00;;
56770;SDS011;42641;59.794;17.616;2023-04-05T15:06:02;3.30;;;1.90;;
56770;SDS011;42641;59.794;17.616;2023-04-05T15:08:30;2.63;;;2.10;;
56770;SDS011;42641;59.794;17.616;2023-04-05T15:10:57;2.40;;;1.70;;
56770;SDS011;42641;59.794;17.616;2023-04-05T15:13:23;4.93;;;2.13;;
56770;SDS011;42641;59.794;17.616;2023-04-05T15:15:51;5.10;;;2.30;;
56770;SDS011;42641;59.794;17.616;2023-04-05T15:18:18;4.80;;;1.97;;
56770;SDS011;42641;59.794;17.616;2023-04-05T15:20:45;2.40;;;1.90;;